Time;durP1;ratioP1;P1;durP2;ratioP2;P2;SDS_P1;SDS_P2;PMS_P1;PMS_P2;Temp;Humidity;BMP_temperature;BMP_pressure;BME280_temperature;BME280_humidity;BME280_pressure;Samples;Min_cycle;Max_cycle;Signal;HPM_P1;HPM_P2
2021/06/18 00:00:15;;;;;;;8.95;8.00;;;21.70;85.70;;;;;;5060794;28;20052;-87
2021/06/18 00:02:41;;;;;;;12.57;8.73;;;21.80;86.10;;;;;;5073050;28;20056;-88
2021/06/18 00:05:08;;;;;;;10.82;8.52;;;21.70;86.00;;;;;;5068155;28;20052;-88
2021/06/18 00:07:34;;;;;;;10.38;9.07;;;21.70;86.30;;;;;;5067663;28;20115;-87
2021/06/18 00:10:00;;;;;;;11.07;8.23;;;21.60;86.50;;;;;;5060542;28;20441;-87
2021/06/18 00:12:26;;;;;;;8.73;7.57;;;21.60;86.60;;;;;;5074929;28;20055;-87
2021/06/18 00:14:51;;;;;;;9.80;8.80;;;21.60;86.70;;;;;;5070160;28;20072;-87
2021/06/18 00:17:17;;;;;;;10.75;8.80;;;21.60;87.00;;;;;;5056757;28;20029;-87
2021/06/18 00:19:42;;;;;;;9.85;8.85;;;21.50;87.00;;;;;;5075420;28;20028;-87
2021/06/18 00:22:08;;;;;;;11.95;9.77;;;21.50;87.20;;;;;;5074395;28;20042;-88
2021/06/18 00:24:33;;;;;;;11.77;8.60;;;21.50;87.30;;;;;;5075517;28;20043;-88
2021/06/18 00:26:59;;;;;;;11.23;9.20;;;21.50;87.40;;;;;;5075010;28;20038;-87
2021/06/18 00:29:24;;;;;;;10.05;9.05;;;21.50;87.60;;;;;;5074662;28;20119;-87
2021/06/18 00:31:50;;;;;;;9.55;8.57;;;21.40;87.60;;;;;;5072539;28;20067;-87
2021/06/18 00:34:15;;;;;;;10.60;9.13;;;21.40;87.70;;;;;;5069138;28;20377;-87
2021/06/18 00:36:41;;;;;;;14.23;9.30;;;21.40;87.70;;;;;;5067439;28;20095;-88
2021/06/18 00:39:06;;;;;;;10.30;9.35;;;21.40;87.70;;;;;;5071664;28;20040;-88
2021/06/18 00:41:32;;;;;;;11.32;10.10;;;21.40;87.70;;;;;;5072819;28;20040;-88
2021/06/18 00:43:57;;;;;;;13.18;10.38;;;21.40;88.00;;;;;;5074968;28;20083;-88
2021/06/18 00:46:24;;;;;;;16.48;11.63;;;21.40;88.70;;;;;;5062916;28;20151;-88
2021/06/18 00:48:50;;;;;;;15.85;11.77;;;21.30;88.10;;;;;;5071223;28;20021;-87
2021/06/18 00:51:16;;;;;;;14.52;11.10;;;21.30;88.20;;;;;;5070004;28;20044;-88
2021/06/18 00:53:42;;;;;;;12.13;11.00;;;21.30;88.30;;;;;;5068998;28;20472;-87
2021/06/18 00:56:08;;;;;;;12.32;11.02;;;21.30;88.40;;;;;;5074215;28;20498;-88
2021/06/18 00:58:33;;;;;;;15.35;13.65;;;21.30;88.40;;;;;;5073904;28;20494;-87
2021/06/18 01:00:59;;;;;;;14.27;12.07;;;21.30;88.70;;;;;;5075781;28;20025;-87
2021/06/18 01:03:24;;;;;;;18.30;12.63;;;21.20;88.70;;;;;;5073580;28;20020;-87
2021/06/18 01:05:52;;;;;;;14.98;13.38;;;21.30;88.80;;;;;;5073862;28;20060;-87
2021/06/18 01:08:34;;;;;;;16.65;12.80;;;21.20;88.90;;;;;;5075252;28;20020;-87
2021/06/18 01:11:09;;;;;;;14.18;12.77;;;21.20;89.00;;;;;;5074061;28;20028;-87
2021/06/18 01:13:43;;;;;;;16.00;13.95;;;21.20;89.20;;;;;;5070228;28;20064;-87
2021/06/18 01:16:25;;;;;;;20.33;15.02;;;21.10;89.30;;;;;;5061655;28;20123;-87
2021/06/18 01:18:57;;;;;;;17.92;14.50;;;21.20;89.60;;;;;;5074435;28;20032;-87
2021/06/18 01:21:28;;;;;;;18.25;14.18;;;21.10;89.80;;;;;;5068929;28;20029;-87
2021/06/18 01:23:59;;;;;;;18.02;15.00;;;21.10;89.80;;;;;;5073220;28;20515;-87
2021/06/18 01:26:32;;;;;;;18.20;16.23;;;21.10;89.90;;;;;;5074791;28;20123;-87
2021/06/18 01:29:00;;;;;;;19.25;16.70;;;21.10;90.10;;;;;;5067148;28;20274;-87
2021/06/18 01:31:32;;;;;;;21.13;18.92;;;21.10;90.10;;;;;;5065264;28;20032;-87
2021/06/18 01:34:07;;;;;;;19.77;17.70;;;21.10;90.20;;;;;;5073117;28;20040;-87
2021/06/18 01:36:33;;;;;;;19.63;17.58;;;21.10;90.20;;;;;;5073567;28;20029;-87
2021/06/18 01:39:00;;;;;;;22.00;18.13;;;21.10;90.20;;;;;;5073943;28;20028;-87
2021/06/18 01:41:29;;;;;;;18.48;16.45;;;21.10;90.20;;;;;;5074177;28;20024;-88
2021/06/18 01:43:58;;;;;;;18.52;16.58;;;21.10;90.20;;;;;;5079562;28;20029;-87
2021/06/18 01:46:26;;;;;;;20.58;18.58;;;21.10;90.10;;;;;;5055766;28;20064;-87
2021/06/18 01:48:57;;;;;;;21.00;17.80;;;21.20;90.10;;;;;;5054483;28;20024;-87
2021/06/18 01:51:25;;;;;;;21.77;19.63;;;21.20;90.00;;;;;;5056935;28;20052;-87
2021/06/18 01:53:52;;;;;;;21.58;18.48;;;21.20;90.00;;;;;;5067995;28;20046;-87
2021/06/18 01:56:20;;;;;;;22.20;20.02;;;21.30;89.80;;;;;;5070177;28;20029;-88
2021/06/18 01:58:49;;;;;;;26.38;19.98;;;21.30;89.60;;;;;;5054209;28;20029;-87
2021/06/18 02:01:16;;;;;;;23.23;20.48;;;21.30;89.60;;;;;;5054527;28;20108;-88
2021/06/18 02:03:44;;;;;;;22.08;19.88;;;21.30;89.40;;;;;;5067761;28;20100;-87
2021/06/18 02:06:10;;;;;;;27.10;21.15;;;21.40;89.50;;;;;;5071611;28;20380;-88
2021/06/18 02:08:37;;;;;;;23.50;21.00;;;21.40;89.40;;;;;;5073298;28;20052;-88
2021/06/18 02:11:04;;;;;;;21.40;19.08;;;21.40;89.30;;;;;;5072768;28;20123;-88
2021/06/18 02:13:32;;;;;;;21.52;18.65;;;21.40;89.30;;;;;;5072629;28;20075;-88
2021/06/18 02:15:58;;;;;;;21.90;19.67;;;21.40;89.30;;;;;;5087221;28;20032;-88
2021/06/18 02:18:26;;;;;;;24.38;21.80;;;21.40;89.30;;;;;;5069250;28;20020;-88
2021/06/18 02:20:54;;;;;;;24.25;21.67;;;21.30;89.30;;;;;;5071112;28;20115;-88
2021/06/18 02:23:25;;;;;;;22.90;20.52;;;21.30;89.30;;;;;;5054469;28;20032;-88
2021/06/18 02:25:51;;;;;;;24.30;20.50;;;21.20;89.50;;;;;;5057362;28;20040;-88
2021/06/18 02:28:20;;;;;;;22.42;19.33;;;21.30;89.60;;;;;;5073398;28;20032;-87
2021/06/18 02:30:46;;;;;;;23.98;21.45;;;21.20;89.60;;;;;;5073243;28;20040;-88
2021/06/18 02:33:12;;;;;;;23.27;20.33;;;21.20;89.70;;;;;;5073252;28;20102;-88
2021/06/18 02:35:39;;;;;;;21.60;19.38;;;21.20;89.80;;;;;;5067845;28;20032;-88
2021/06/18 02:38:06;;;;;;;25.23;21.00;;;21.20;89.80;;;;;;5065618;28;20025;-88
2021/06/18 02:40:31;;;;;;;21.55;19.00;;;21.10;89.80;;;;;;5063203;28;20024;-88
2021/06/18 02:42:57;;;;;;;22.98;20.67;;;21.10;89.80;;;;;;5070748;28;20050;-87
2021/06/18 02:45:22;;;;;;;22.33;20.17;;;21.10;89.90;;;;;;5071834;28;20028;-88
2021/06/18 02:48:04;;;;;;;22.60;20.13;;;21.00;90.00;;;;;;5072145;28;20039;-87
2021/06/18 02:50:41;;;;;;;24.08;20.88;;;21.00;90.00;;;;;;5069417;28;20074;-87
2021/06/18 02:53:07;;;;;;;26.95;23.92;;;20.90;90.10;;;;;;5071282;28;20414;-87
2021/06/18 02:56:19;;;;;;;24.92;22.08;;;20.80;90.20;;;;;;5064002;28;20476;-87
2021/06/18 02:59:01;;;;;;;26.73;23.90;;;20.80;90.30;;;;;;5058181;28;20123;-88
2021/06/18 03:01:28;;;;;;;;;;;20.80;90.40;;;;;;5056614;28;20762;-88
2021/06/18 03:03:57;;;;;;;29.02;25.17;;;20.70;90.30;;;;;;5089487;28;20021;-88
2021/06/18 03:06:23;;;;;;;29.45;26.30;;;20.70;90.40;;;;;;5066374;28;20021;-87
2021/06/18 03:08:57;;;;;;;28.30;25.30;;;20.70;90.50;;;;;;5065539;28;20017;-87
2021/06/18 03:11:27;;;;;;;32.70;29.20;;;20.70;90.60;;;;;;5068069;28;20055;-87
2021/06/18 03:13:56;;;;;;;30.58;27.52;;;20.60;90.60;;;;;;5071622;28;20044;-87
2021/06/18 03:16:23;;;;;;;30.95;27.77;;;20.70;90.70;;;;;;5066979;28;20029;-87
2021/06/18 03:18:50;;;;;;;30.88;27.63;;;20.70;90.70;;;;;;5062453;28;20029;-87
2021/06/18 03:21:16;;;;;;;29.42;26.35;;;20.70;90.70;;;;;;5060315;28;20555;-87
2021/06/18 03:23:43;;;;;;;34.15;29.75;;;20.70;90.70;;;;;;5070799;28;20039;-87
2021/06/18 03:26:09;;;;;;;33.17;29.67;;;20.60;90.70;;;;;;5070285;28;20032;-87
2021/06/18 03:28:36;;;;;;;32.45;29.08;;;20.60;91.00;;;;;;5072171;28;20087;-87
2021/06/18 03:31:07;;;;;;;33.00;29.33;;;20.60;91.00;;;;;;5067086;28;20025;-88
2021/06/18 03:33:32;;;;;;;31.50;28.45;;;20.50;91.00;;;;;;5067854;28;20033;-88
2021/06/18 03:35:58;;;;;;;31.00;27.83;;;20.60;91.00;;;;;;5069908;28;20115;-87
2021/06/18 03:38:25;;;;;;;31.63;28.35;;;20.60;91.00;;;;;;5073354;28;20512;-87
2021/06/18 03:40:50;;;;;;;31.15;27.15;;;20.70;91.00;;;;;;5058873;28;20119;-87
2021/06/18 03:43:16;;;;;;;34.70;30.50;;;20.70;90.90;;;;;;5075609;28;20036;-86
2021/06/18 03:45:45;;;;;;;32.95;29.05;;;20.70;90.90;;;;;;5075555;28;20032;-86
2021/06/18 03:48:14;;;;;;;32.28;28.88;;;20.70;90.90;;;;;;5072040;28;20029;-86
2021/06/18 03:50:39;;;;;;;33.95;28.45;;;20.70;90.90;;;;;;5075318;28;20025;-85
2021/06/18 03:53:08;;;;;;;36.05;32.08;;;20.80;91.00;;;;;;5072576;28;20029;-87
2021/06/18 03:55:34;;;;;;;33.05;29.17;;;20.80;91.20;;;;;;5063297;28;20036;-87
2021/06/18 03:58:00;;;;;;;24.20;20.77;;;20.90;91.30;;;;;;5074752;28;20400;-86
2021/06/18 04:00:27;;;;;;;31.88;22.27;;;20.90;91.70;;;;;;5065907;28;20040;-88
2021/06/18 04:02:53;;;;;;;27.73;18.63;;;20.70;92.30;;;;;;5074915;28;20054;-87
2021/06/18 04:05:22;;;;;;;42.00;25.67;;;20.40;92.50;;;;;;5073294;28;20055;-87
2021/06/18 04:07:50;;;;;;;28.35;18.55;;;20.10;93.30;;;;;;5066521;28;20013;-87
2021/06/18 04:10:17;;;;;;;20.17;15.10;;;19.90;93.70;;;;;;5071384;28;20399;-85
2021/06/18 04:12:49;;;;;;;19.85;15.48;;;19.80;94.30;;;;;;5073814;28;20021;-85
2021/06/18 04:15:16;;;;;;;20.50;15.77;;;19.70;94.70;;;;;;5074532;28;20098;-85
2021/06/18 04:17:42;;;;;;;21.42;16.27;;;19.50;94.90;;;;;;5075272;28;20137;-85
2021/06/18 04:20:08;;;;;;;17.95;14.57;;;19.50;95.10;;;;;;5069885;28;20028;-84
2021/06/18 04:22:35;;;;;;;15.13;13.38;;;19.50;95.30;;;;;;5074527;28;20028;-85
2021/06/18 04:25:04;;;;;;;19.67;17.70;;;19.50;95.60;;;;;;5074422;28;20476;-84
2021/06/18 04:27:29;;;;;;;25.92;21.10;;;19.50;96.00;;;;;;5072729;28;20017;-87
2021/06/18 04:29:55;;;;;;;26.15;23.27;;;19.50;96.00;;;;;;5075130;28;20553;-86
2021/06/18 04:32:20;;;;;;;48.70;21.88;;;19.50;96.10;;;;;;5075120;28;20066;-86
2021/06/18 04:34:47;;;;;;;51.95;25.15;;;19.40;96.10;;;;;;5055403;28;20086;-86
2021/06/18 04:37:12;;;;;;;62.17;31.58;;;19.40;96.10;;;;;;5068264;28;20035;-86
2021/06/18 04:39:38;;;;;;;35.30;26.13;;;19.30;96.10;;;;;;5073951;28;20115;-86
2021/06/18 04:42:04;;;;;;;42.38;32.90;;;19.30;96.50;;;;;;5074730;28;20016;-86
2021/06/18 04:44:31;;;;;;;54.20;41.20;;;19.20;96.30;;;;;;5075024;28;20448;-86
2021/06/18 04:46:57;;;;;;;58.85;43.55;;;19.10;96.40;;;;;;5074059;28;20048;-85
2021/06/18 04:49:22;;;;;;;48.65;39.10;;;19.10;96.60;;;;;;5075757;28;20499;-84
2021/06/18 04:51:48;;;;;;;47.80;40.63;;;19.10;96.70;;;;;;5071116;28;20528;-85
2021/06/18 04:54:13;;;;;;;46.33;38.17;;;19.10;96.80;;;;;;5075964;28;20082;-84
2021/06/18 04:56:40;;;;;;;56.67;45.47;;;19.10;96.90;;;;;;5074821;28;20023;-84
2021/06/18 04:59:06;;;;;;;68.75;52.10;;;19.10;97.00;;;;;;5071664;28;20480;-84
2021/06/18 05:01:32;;;;;;;77.35;57.38;;;19.10;97.10;;;;;;5074862;28;20039;-84
2021/06/18 05:03:58;;;;;;;115.85;76.28;;;19.10;97.20;;;;;;5074823;28;20024;-84
2021/06/18 05:06:24;;;;;;;127.63;82.97;;;19.10;97.30;;;;;;5075249;28;20032;-85
2021/06/18 05:08:49;;;;;;;142.27;84.53;;;19.20;97.50;;;;;;5066348;28;20024;-84
2021/06/18 05:11:15;;;;;;;165.68;92.82;;;19.30;97.60;;;;;;5059002;28;20059;-84
2021/06/18 05:13:40;;;;;;;177.00;96.68;;;19.30;97.70;;;;;;5071725;28;20050;-85
2021/06/18 05:16:06;;;;;;;151.00;94.22;;;19.40;97.80;;;;;;5062992;28;20055;-84
2021/06/18 05:18:32;;;;;;;154.98;90.07;;;19.50;97.90;;;;;;5067862;28;20028;-84
2021/06/18 05:20:57;;;;;;;165.70;95.05;;;19.50;97.90;;;;;;5067145;28;20021;-85
2021/06/18 05:23:23;;;;;;;194.50;100.20;;;19.50;98.00;;;;;;5060297;28;20090;-85
2021/06/18 05:25:48;;;;;;;151.98;90.50;;;19.60;98.10;;;;;;5074963;28;20434;-85
2021/06/18 05:28:14;;;;;;;152.18;89.80;;;19.60;98.20;;;;;;5074964;28;20040;-85
2021/06/18 05:30:40;;;;;;;177.98;96.25;;;19.60;98.20;;;;;;5074658;28;20031;-85
2021/06/18 05:33:05;;;;;;;162.98;92.05;;;19.60;98.20;;;;;;5075486;28;20044;-85
2021/06/18 05:35:31;;;;;;;142.73;85.07;;;19.60;98.30;;;;;;5064965;28;20476;-84
2021/06/18 05:37:56;;;;;;;142.35;81.15;;;19.70;98.40;;;;;;5060794;28;20025;-84
2021/06/18 05:40:22;;;;;;;133.30;77.80;;;19.70;98.40;;;;;;5074628;28;20060;-84
2021/06/18 05:42:48;;;;;;;127.45;75.90;;;19.70;98.50;;;;;;5074008;28;20032;-84
2021/06/18 05:45:14;;;;;;;144.55;82.35;;;19.70;98.50;;;;;;5067357;28;20025;-85
2021/06/18 05:47:39;;;;;;;135.65;78.88;;;19.60;98.60;;;;;;5074101;28;20392;-84
2021/06/18 05:50:06;;;;;;;110.32;70.55;;;19.70;98.90;;;;;;5075729;28;20033;-85
2021/06/18 05:52:32;;;;;;;109.60;66.70;;;19.80;98.90;;;;;;5075199;28;20025;-85
2021/06/18 05:54:58;;;;;;;100.88;63.10;;;19.80;98.90;;;;;;5072096;28;20408;-85
2021/06/18 05:57:24;;;;;;;80.43;54.20;;;19.80;98.90;;;;;;5069720;28;20025;-85
2021/06/18 05:59:49;;;;;;;81.72;54.53;;;19.80;98.90;;;;;;5056333;28;20033;-85
2021/06/18 06:02:15;;;;;;;84.22;57.65;;;19.80;99.00;;;;;;5067836;28;20028;-86
2021/06/18 06:04:40;;;;;;;74.85;52.42;;;19.90;99.10;;;;;;5072858;28;20035;-85
2021/06/18 06:07:06;;;;;;;78.38;56.25;;;19.90;99.00;;;;;;5069322;28;20028;-85
2021/06/18 06:09:31;;;;;;;73.68;55.97;;;19.90;99.00;;;;;;5075463;28;20028;-85
2021/06/18 06:11:57;;;;;;;84.55;58.25;;;20.00;99.10;;;;;;5074017;28;20025;-85
2021/06/18 06:14:22;;;;;;;81.65;58.13;;;20.00;99.10;;;;;;5073605;28;20033;-85
2021/06/18 06:16:48;;;;;;;82.88;60.35;;;20.10;99.20;;;;;;5064488;28;20028;-85
2021/06/18 06:19:15;;;;;;;81.85;58.42;;;20.20;99.10;;;;;;5067832;28;20086;-85
2021/06/18 06:21:41;;;;;;;92.22;66.95;;;20.30;99.10;;;;;;5054197;28;20028;-85
2021/06/18 06:24:08;;;;;;;91.00;68.18;;;20.40;99.20;;;;;;5062109;28;20132;-84
2021/06/18 06:26:34;;;;;;;92.97;67.70;;;20.50;99.00;;;;;;5069127;28;20056;-85
2021/06/18 06:29:00;;;;;;;96.40;72.72;;;20.50;99.00;;;;;;5066196;28;20491;-85
2021/06/18 06:31:25;;;;;;;104.28;76.47;;;20.50;99.10;;;;;;5061323;28;20484;-85
2021/06/18 06:33:51;;;;;;;103.53;76.45;;;20.70;99.10;;;;;;5064810;28;20166;-85
2021/06/18 06:36:16;;;;;;;116.93;83.78;;;20.70;98.80;;;;;;5062545;28;20472;-84
2021/06/18 06:38:42;;;;;;;116.88;82.93;;;20.70;98.80;;;;;;5065455;28;20017;-85
2021/06/18 06:41:08;;;;;;;115.22;84.80;;;20.70;98.70;;;;;;5087119;28;20032;-85
2021/06/18 06:43:33;;;;;;;113.88;86.32;;;20.70;98.60;;;;;;5069423;28;20025;-85
2021/06/18 06:45:59;;;;;;;141.35;96.00;;;20.70;98.60;;;;;;5073531;28;20704;-85
2021/06/18 06:48:25;;;;;;;139.40;98.35;;;20.70;98.70;;;;;;5071449;28;20028;-83
2021/06/18 06:50:51;;;;;;;130.60;92.25;;;20.70;98.70;;;;;;5071550;28;20442;-84
2021/06/18 06:53:17;;;;;;;130.80;93.30;;;20.80;98.80;;;;;;5070848;28;20033;-85
2021/06/18 06:55:43;;;;;;;134.38;95.25;;;20.90;98.80;;;;;;5068821;28;20063;-89
2021/06/18 06:58:08;;;;;;;113.38;83.70;;;20.90;98.70;;;;;;5071602;28;20086;-93
2021/06/18 07:00:34;;;;;;;114.50;83.47;;;21.00;98.70;;;;;;5074805;28;20028;-94
2021/06/18 07:03:00;;;;;;;132.75;94.40;;;21.00;98.60;;;;;;5058698;28;20025;-94
2021/06/18 07:05:25;;;;;;;116.65;84.75;;;21.10;98.60;;;;;;5063933;28;20037;-95
2021/06/18 07:07:51;;;;;;;127.50;94.68;;;21.10;98.60;;;;;;5075276;28;20029;-93
2021/06/18 07:10:16;;;;;;;118.55;90.03;;;21.10;98.50;;;;;;5074359;28;20150;-91
2021/06/18 07:12:42;;;;;;;106.35;77.57;;;21.10;98.50;;;;;;5071850;28;20013;-92
2021/06/18 07:15:08;;;;;;;111.60;83.57;;;21.10;98.40;;;;;;5073883;28;20047;-92
2021/06/18 07:17:33;;;;;;;110.65;82.70;;;21.10;98.30;;;;;;5073839;28;20036;-93
2021/06/18 07:20:01;;;;;;;108.13;84.30;;;21.10;98.30;;;;;;5072576;28;20028;-93
2021/06/18 07:22:28;;;;;;;111.47;85.45;;;21.10;98.30;;;;;;5071884;28;20388;-92
2021/06/18 07:24:53;;;;;;;101.60;80.22;;;21.00;98.40;;;;;;5070412;28;20047;-93
2021/06/18 07:27:20;;;;;;;98.50;76.55;;;21.10;98.40;;;;;;5065277;28;20024;-93
2021/06/18 07:29:46;;;;;;;103.10;79.25;;;21.00;98.60;;;;;;5072216;28;20092;-93
2021/06/18 07:32:12;;;;;;;112.05;79.50;;;21.00;98.20;;;;;;5075311;28;20023;-91
2021/06/18 07:34:38;;;;;;;114.57;87.80;;;21.00;98.30;;;;;;5075539;28;20036;-91
2021/06/18 07:37:04;;;;;;;112.55;85.82;;;20.90;98.40;;;;;;5073048;28;20067;-94
2021/06/18 07:39:30;;;;;;;107.95;83.57;;;20.90;98.60;;;;;;5075869;28;20549;-92
2021/06/18 07:41:56;;;;;;;110.03;84.07;;;21.00;98.60;;;;;;5075358;28;20067;-96
2021/06/18 07:44:22;;;;;;;106.57;82.93;;;21.00;98.50;;;;;;5070355;28;20542;-85
2021/06/18 07:46:47;;;;;;;115.75;92.20;;;21.00;98.40;;;;;;5070096;28;20484;-85
2021/06/18 07:49:13;;;;;;;110.50;83.20;;;21.10;98.40;;;;;;5070579;28;20051;-85
2021/06/18 07:51:38;;;;;;;124.55;96.03;;;21.10;98.50;;;;;;5062268;28;20048;-85
2021/06/18 07:54:04;;;;;;;118.93;94.00;;;21.10;98.50;;;;;;5072627;28;20037;-85
2021/06/18 07:56:33;;;;;;;109.85;88.38;;;21.30;98.60;;;;;;5072017;28;20036;-85
2021/06/18 07:58:58;;;;;;;113.00;87.72;;;21.30;98.50;;;;;;5070928;28;20025;-85
2021/06/18 08:01:24;;;;;;;106.65;85.47;;;21.40;98.40;;;;;;5067942;28;20092;-86
2021/06/18 08:03:50;;;;;;;101.13;84.03;;;21.40;98.30;;;;;;5063775;28;20029;-85
2021/06/18 08:06:16;;;;;;;106.43;86.22;;;21.40;98.10;;;;;;5067579;28;20821;-85
2021/06/18 08:08:43;;;;;;;97.38;79.30;;;21.40;98.10;;;;;;5070133;28;20027;-85
2021/06/18 08:11:08;;;;;;;99.45;82.00;;;21.40;98.00;;;;;;5056969;28;20029;-85
2021/06/18 08:13:34;;;;;;;94.28;75.43;;;21.40;98.00;;;;;;5063546;28;20028;-95
2021/06/18 08:16:00;;;;;;;90.95;73.60;;;21.50;98.00;;;;;;5068775;28;20048;-85
2021/06/18 08:18:25;;;;;;;98.03;83.72;;;21.50;97.90;;;;;;5066449;28;20448;-85
2021/06/18 08:20:51;;;;;;;93.40;81.72;;;21.40;97.90;;;;;;5072080;28;20103;-85
2021/06/18 08:23:18;;;;;;;99.38;80.80;;;21.50;97.90;;;;;;5076393;28;20029;-85
2021/06/18 08:25:43;;;;;;;95.70;82.78;;;21.60;97.90;;;;;;5077218;28;20464;-85
2021/06/18 08:28:09;;;;;;;96.03;82.18;;;21.70;97.80;;;;;;5076813;28;20119;-85
2021/06/18 08:30:34;;;;;;;92.95;79.50;;;21.70;97.80;;;;;;5076138;28;20025;-85
2021/06/18 08:33:00;;;;;;;90.82;75.45;;;21.90;97.80;;;;;;5076052;28;20033;-85
2021/06/18 08:35:29;;;;;;;85.45;73.05;;;22.00;97.60;;;;;;5076306;28;20119;-85
2021/06/18 08:37:55;;;;;;;84.55;75.10;;;22.20;97.50;;;;;;5075840;28;20083;-85
2021/06/18 08:40:21;;;;;;;82.32;70.20;;;22.30;97.30;;;;;;5075415;28;20059;-85
2021/06/18 08:42:48;;;;;;;76.75;67.30;;;22.40;97.40;;;;;;5072521;28;20075;-85
2021/06/18 08:45:13;;;;;;;73.32;65.50;;;22.50;97.20;;;;;;5074990;28;20028;-84
2021/06/18 08:47:40;;;;;;;70.47;61.75;;;22.60;97.10;;;;;;5076980;28;20029;-85
2021/06/18 08:50:06;;;;;;;68.47;60.42;;;22.60;96.70;;;;;;5075409;28;20092;-85
2021/06/18 08:52:32;;;;;;;62.50;55.78;;;22.60;96.60;;;;;;5075744;28;20540;-84
2021/06/18 08:54:58;;;;;;;61.78;55.17;;;22.70;96.40;;;;;;5076007;28;20120;-85
2021/06/18 08:57:23;;;;;;;62.67;56.42;;;22.80;96.10;;;;;;5071423;28;20020;-85
2021/06/18 08:59:50;;;;;;;56.65;50.90;;;23.00;95.90;;;;;;5058869;28;20048;-85
2021/06/18 09:02:16;;;;;;;61.58;55.20;;;23.30;96.10;;;;;;5075050;28;20078;-85
2021/06/18 09:05:13;;;;;;;60.15;54.13;;;23.50;95.50;;;;;;5071494;28;20088;-85
2021/06/18 09:07:52;;;;;;;63.90;57.22;;;23.80;95.40;;;;;;5060071;28;20405;-85
2021/06/18 09:10:22;;;;;;;57.90;52.17;;;24.00;95.10;;;;;;5070705;28;20476;-85
2021/06/18 09:13:07;;;;;;;53.88;48.30;;;24.10;94.70;;;;;;5075262;28;20017;-85
2021/06/18 09:15:33;;;;;;;56.88;51.03;;;24.30;94.60;;;;;;5066422;28;20036;-85
2021/06/18 09:18:31;;;;;;;48.08;42.97;;;24.30;94.10;;;;;;5072380;28;20435;-86
2021/06/18 09:21:03;;;;;;;47.70;42.92;;;24.40;93.80;;;;;;5072393;28;20025;-85
2021/06/18 09:23:32;;;;;;;48.50;43.53;;;24.50;93.60;;;;;;5067037;28;20105;-85
2021/06/18 09:26:20;;;;;;;45.90;41.30;;;24.50;93.10;;;;;;5073618;28;20029;-86
2021/06/18 09:29:09;;;;;;;46.88;42.10;;;24.50;92.90;;;;;;5072911;28;20025;-86
2021/06/18 09:31:59;;;;;;;42.97;38.83;;;24.60;92.40;;;;;;5071827;28;20021;-85
2021/06/18 09:34:36;;;;;;;43.92;39.55;;;24.80;92.60;;;;;;5062877;28;20044;-86
2021/06/18 09:37:17;;;;;;;45.35;40.53;;;25.00;92.80;;;;;;5074784;28;20017;-86
2021/06/18 09:40:00;;;;;;;42.13;37.97;;;25.30;93.10;;;;;;5055451;28;20036;-86
2021/06/18 09:42:26;;;;;;;37.75;34.15;;;25.50;92.40;;;;;;5073236;28;20029;-86
2021/06/18 09:45:06;;;;;;;34.42;31.02;;;25.60;92.40;;;;;;5072808;28;20009;-86
2021/06/18 09:47:32;;;;;;;32.28;29.10;;;25.80;92.40;;;;;;5072188;28;20495;-86
2021/06/18 09:49:58;;;;;;;31.45;27.38;;;26.00;91.90;;;;;;5065433;28;20108;-85
2021/06/18 09:52:25;;;;;;;26.58;24.05;;;26.10;91.60;;;;;;5056297;28;20753;-85
2021/06/18 09:54:54;;;;;;;28.33;25.73;;;26.30;91.50;;;;;;5071070;28;20028;-86
2021/06/18 09:57:41;;;;;;;24.33;22.13;;;26.40;90.90;;;;;;5073608;28;20031;-86
2021/06/18 10:00:12;;;;;;;25.02;22.50;;;26.50;91.10;;;;;;5069855;28;20036;-86
2021/06/18 10:02:49;;;;;;;23.17;20.93;;;26.50;90.00;;;;;;5071158;28;20086;-86
2021/06/18 10:05:23;;;;;;;25.63;23.08;;;26.60;90.40;;;;;;5070795;28;20033;-86
2021/06/18 10:07:50;;;;;;;23.88;21.48;;;26.60;90.30;;;;;;5074218;28;20105;-86
2021/06/18 10:10:19;;;;;;;23.55;21.17;;;26.70;90.20;;;;;;5073167;28;20043;-86
2021/06/18 10:12:45;;;;;;;22.27;20.05;;;26.90;90.10;;;;;;5073547;28;20013;-86
2021/06/18 10:15:13;;;;;;;24.15;21.55;;;27.00;88.60;;;;;;5066787;28;20048;-86
2021/06/18 10:17:41;;;;;;;19.27;17.38;;;27.10;86.50;;;;;;5058216;28;20013;-87
2021/06/18 10:20:12;;;;;;;20.88;18.90;;;27.00;86.30;;;;;;5071101;28;20160;-87
2021/06/18 10:22:53;;;;;;;20.73;17.65;;;27.10;86.20;;;;;;5073676;28;20048;-87
2021/06/18 10:25:27;;;;;;;19.08;17.17;;;27.10;84.10;;;;;;5070293;28;20039;-86
2021/06/18 10:27:54;;;;;;;18.45;16.48;;;27.10;83.60;;;;;;5074288;28;20091;-86
2021/06/18 10:30:33;;;;;;;17.35;15.55;;;27.20;83.50;;;;;;5071905;28;20016;-87
2021/06/18 10:33:01;;;;;;;18.00;15.95;;;27.30;84.00;;;;;;5071120;28;20031;-87
2021/06/18 10:35:43;;;;;;;20.10;16.48;;;27.50;83.30;;;;;;5075175;28;20498;-87
2021/06/18 10:38:23;;;;;;;17.33;15.10;;;27.70;82.00;;;;;;5074572;28;20025;-87
2021/06/18 10:40:48;;;;;;;16.73;13.20;;;27.80;81.10;;;;;;5073773;28;20032;-88
2021/06/18 10:43:15;;;;;;;15.85;14.13;;;27.90;81.20;;;;;;5074082;28;20078;-87
2021/06/18 10:46:06;;;;;;;15.93;14.18;;;27.90;79.50;;;;;;5074451;28;20049;-87
2021/06/18 10:48:55;;;;;;;15.23;13.80;;;28.00;79.20;;;;;;5073982;28;20028;-87
2021/06/18 10:51:26;;;;;;;14.38;12.95;;;28.00;79.50;;;;;;5076467;28;20016;-87
2021/06/18 10:54:04;;;;;;;16.55;14.50;;;28.20;79.20;;;;;;5072148;28;20064;-87
2021/06/18 10:56:48;;;;;;;14.88;13.32;;;28.30;78.00;;;;;;5054928;28;20035;-88
2021/06/18 10:59:16;;;;;;;14.35;12.95;;;28.50;77.90;;;;;;5070791;28;20033;-87
2021/06/18 11:01:42;;;;;;;15.43;11.90;;;28.60;76.00;;;;;;5063151;28;20028;-87
2021/06/18 11:04:08;;;;;;;14.20;12.90;;;28.70;75.40;;;;;;5063757;28;20104;-88
2021/06/18 11:06:48;;;;;;;16.58;14.88;;;28.70;75.00;;;;;;5070458;28;20048;-85
2021/06/18 11:09:40;;;;;;;13.48;11.90;;;28.80;76.20;;;;;;5092424;28;20033;-86
2021/06/18 11:12:24;;;;;;;16.33;13.23;;;28.90;76.20;;;;;;5064434;28;20037;-86
2021/06/18 11:15:28;;;;;;;14.40;11.57;;;29.10;75.60;;;;;;5054517;28;20040;-87
2021/06/18 11:18:14;;;;;;;11.05;9.95;;;29.20;74.90;;;;;;5064666;28;20025;-87
2021/06/18 11:20:40;;;;;;;11.73;9.07;;;29.30;74.20;;;;;;5070019;28;20031;-88
2021/06/18 11:23:12;;;;;;;11.15;8.43;;;29.40;73.60;;;;;;5061389;28;20033;-88
2021/06/18 11:25:41;;;;;;;14.32;10.13;;;29.60;72.90;;;;;;5069458;28;20036;-89
2021/06/18 11:28:22;;;;;;;11.10;9.13;;;29.60;71.50;;;;;;5073311;28;20025;-88
2021/06/18 11:31:05;;;;;;;8.73;7.82;;;29.50;71.10;;;;;;5073582;28;20082;-88
2021/06/18 11:34:01;;;;;;;13.35;7.38;;;29.50;70.20;;;;;;5069881;28;20074;-87
2021/06/18 11:36:33;;;;;;;7.93;5.43;;;29.60;69.90;;;;;;5064020;28;20141;-86
2021/06/18 11:39:08;;;;;;;14.38;6.30;;;29.80;70.00;;;;;;5061359;28;20063;-86
2021/06/18 11:41:42;;;;;;;11.15;7.32;;;30.00;69.10;;;;;;5070918;28;20031;-87
2021/06/18 11:44:09;;;;;;;12.23;9.88;;;30.10;68.90;;;;;;5075480;28;20023;-86
2021/06/18 11:46:36;;;;;;;10.07;7.53;;;30.10;68.40;;;;;;5056556;28;20105;-86
2021/06/18 11:49:14;;;;;;;9.80;7.03;;;30.20;67.80;;;;;;5072937;28;20091;-87
2021/06/18 11:51:40;;;;;;;8.05;6.82;;;30.20;67.80;;;;;;5067480;28;20025;-88
2021/06/18 11:54:06;;;;;;;8.48;5.72;;;30.20;67.50;;;;;;5062720;28;20053;-87
2021/06/18 11:56:34;;;;;;;9.48;5.07;;;30.30;67.20;;;;;;5064240;28;20091;-88
2021/06/18 11:59:00;;;;;;;7.10;5.55;;;30.40;66.50;;;;;;5062696;28;20028;-88
2021/06/18 12:01:30;;;;;;;8.95;5.15;;;30.60;65.00;;;;;;5075782;28;20391;-87
2021/06/18 12:03:57;;;;;;;7.93;5.45;;;30.60;65.00;;;;;;5076803;28;20476;-89
2021/06/18 12:06:25;;;;;;;9.07;5.25;;;30.80;65.00;;;;;;5077194;28;20028;-94
2021/06/18 12:09:18;;;;;;;9.80;6.13;;;30.90;64.90;;;;;;5075330;28;20078;-93
2021/06/18 12:12:00;;;;;;;10.20;5.75;;;31.00;64.70;;;;;;5074806;28;20033;-96
2021/06/18 12:14:39;;;;;;;7.07;4.45;;;30.90;62.70;;;;;;5072648;28;20097;-91
2021/06/18 12:17:06;;;;;;;10.18;5.65;;;31.00;62.20;;;;;;5079231;28;20016;-94
2021/06/18 12:19:35;;;;;;;8.52;4.82;;;31.00;60.50;;;;;;5076163;28;20029;-88
2021/06/18 12:22:05;;;;;;;7.82;4.82;;;31.00;59.50;;;;;;5077134;28;20021;-88
2021/06/18 12:24:36;;;;;;;7.40;3.85;;;31.10;58.60;;;;;;5076626;28;20035;-87
2021/06/18 12:27:04;;;;;;;;;;;31.10;59.60;;;;;;5078176;28;20019;-88
2021/06/18 12:29:30;;;;;;;8.32;5.35;;;31.20;60.30;;;;;;5066152;28;19916;-88
2021/06/18 12:31:57;;;;;;;8.05;4.75;;;31.20;59.20;;;;;;5075815;28;20798;-89
2021/06/18 12:34:23;;;;;;;5.85;4.45;;;31.30;60.50;;;;;;5067645;28;20071;-89
2021/06/18 12:36:57;;;;;;;10.68;5.13;;;31.50;60.50;;;;;;5066424;28;20049;-88